createdAt,value
2022-08-28T00:00:42.996Z,100440.19
2022-08-28T00:03:13.042Z,100442.06
2022-08-28T00:05:42.661Z,100448.19
2022-08-28T00:08:13.254Z,100453.25
2022-08-28T00:10:42.551Z,100454.28
2022-08-28T00:13:15.520Z,100456.47
2022-08-28T00:15:43.821Z,100459.72
2022-08-28T00:18:12.246Z,100454.31
2022-08-28T00:20:40.944Z,100463.75
2022-08-28T00:23:09.283Z,100458.34
2022-08-28T00:25:37.786Z,100464.78
2022-08-28T00:28:09.008Z,100465.78
2022-08-28T00:30:42.235Z,100465.78
2022-08-28T00:33:12.667Z,100464.78
2022-08-28T00:35:41.910Z,100469.88
2022-08-28T00:38:11.324Z,100474.59
2022-08-28T00:40:41.492Z,100471.56
2022-08-28T00:43:10.775Z,100470.38
2022-08-28T00:45:40.387Z,100472.72
2022-08-28T00:48:08.816Z,100464.78
2022-08-28T00:50:51.794Z,100470.19
2022-08-28T00:53:23.483Z,100473.38
2022-08-28T00:55:55.371Z,100473.91
2022-08-28T00:58:23.313Z,100479.25
2022-08-28T01:00:52.615Z,100480.63
2022-08-28T01:03:21.798Z,100484.34
2022-08-28T01:05:53.452Z,100480.63
2022-08-28T01:08:21.635Z,100473.84
2022-08-28T01:10:55.147Z,100471.47
2022-08-28T01:13:25.507Z,100471.81
2022-08-28T01:15:55.941Z,100467.25
2022-08-28T01:18:24.698Z,100475.31
2022-08-28T01:20:59.838Z,100476.50
2022-08-28T01:23:45.717Z,100466.41
2022-08-28T01:26:14.000Z,100470.47
2022-08-28T01:28:42.187Z,100468.41
2022-08-28T01:31:10.877Z,100477.84
2022-08-28T01:33:42.587Z,100482.25
2022-08-28T01:36:12.393Z,100482.56
2022-08-28T01:38:41.721Z,100483.94
2022-08-28T01:41:12.694Z,100480.38
2022-08-28T01:43:42.253Z,100476.12
2022-08-28T01:46:12.527Z,100479.00
2022-08-28T01:48:44.921Z,100475.09
2022-08-28T01:51:13.846Z,100475.91
2022-08-28T01:53:45.064Z,100484.53
2022-08-28T01:56:17.710Z,100477.13
2022-08-28T01:58:48.033Z,100476.78
2022-08-28T02:01:18.490Z,100480.84
2022-08-28T02:03:47.429Z,100474.75
2022-08-28T02:06:16.464Z,100472.91
2022-08-28T02:08:44.378Z,100472.03
2022-08-28T02:11:12.763Z,100479.00
2022-08-28T02:13:42.188Z,100477.69
2022-08-28T02:16:12.221Z,100476.00
2022-08-28T02:18:41.283Z,100488.06
2022-08-28T02:21:10.678Z,100483.88
2022-08-28T02:23:40.364Z,100486.16
2022-08-28T02:26:09.524Z,100491.34
2022-08-28T02:28:37.855Z,100479.56
2022-08-28T02:31:08.304Z,100490.06
2022-08-28T02:33:38.427Z,100486.41
2022-08-28T02:36:09.387Z,100488.03
2022-08-28T02:38:38.479Z,100498.97
2022-08-28T02:41:06.469Z,100491.34
2022-08-28T02:43:34.526Z,100495.91
2022-08-28T02:46:02.988Z,100500.59
2022-08-28T02:48:34.574Z,100496.53
2022-08-28T02:51:05.424Z,100491.28
2022-08-28T02:53:33.624Z,100495.84
2022-08-28T02:56:02.923Z,100500.94
2022-08-28T02:58:32.814Z,100498.37
2022-08-28T03:01:01.779Z,100498.91
2022-08-28T03:03:31.043Z,100503.28
2022-08-28T03:06:01.257Z,100501.25
2022-08-28T03:08:30.103Z,100508.94
2022-08-28T03:10:58.215Z,100508.09
2022-08-28T03:13:27.082Z,100511.09
2022-08-28T03:15:56.119Z,100508.50
2022-08-28T03:18:25.536Z,100513.03
2022-08-28T03:20:54.006Z,100501.78
2022-08-28T03:23:29.164Z,100508.25
2022-08-28T03:26:00.490Z,100509.94
2022-08-28T03:28:31.341Z,100521.19
2022-08-28T03:31:00.021Z,100511.94
2022-08-28T03:33:29.155Z,100509.94
2022-08-28T03:35:57.841Z,100513.62
2022-08-28T03:38:28.037Z,100506.78
2022-08-28T03:40:55.936Z,100511.09
2022-08-28T03:43:25.847Z,100504.69
2022-08-28T03:45:59.576Z,100513.62
2022-08-28T03:48:29.839Z,100518.31
2022-08-28T03:50:59.789Z,100521.87
2022-08-28T03:53:30.752Z,100525.13
2022-08-28T03:55:59.038Z,100521.19
2022-08-28T03:58:27.958Z,100520.50
2022-08-28T04:00:55.898Z,100523.47
2022-08-28T04:03:24.098Z,100522.94
2022-08-28T04:05:52.645Z,100530.84
2022-08-28T04:08:22.594Z,100528.56
2022-08-28T04:10:52.954Z,100534.44
2022-08-28T04:13:22.402Z,100536.47
2022-08-28T04:15:57.630Z,100534.94
2022-08-28T04:18:26.736Z,100534.34
2022-08-28T04:20:59.696Z,100539.75
2022-08-28T04:23:27.644Z,100541.69
2022-08-28T04:25:57.558Z,100547.91
2022-08-28T04:28:25.911Z,100542.53
2022-08-28T04:30:55.515Z,100543.84
2022-08-28T04:33:25.012Z,100544.94
2022-08-28T04:35:53.298Z,100547.75
2022-08-28T04:38:21.511Z,100554.41
2022-08-28T04:40:49.938Z,100545.31
2022-08-28T04:43:19.236Z,100555.78
2022-08-28T04:45:47.284Z,100551.06
2022-08-28T04:48:15.745Z,100552.41
2022-08-28T04:50:44.955Z,100556.94
2022-08-28T04:53:13.831Z,100558.41
2022-08-28T04:55:54.243Z,100561.47
2022-08-28T04:58:24.643Z,100553.03
2022-08-28T05:00:54.293Z,100552.44
2022-08-28T05:03:23.054Z,100558.84
2022-08-28T05:05:53.500Z,100550.91
2022-08-28T05:08:24.515Z,100554.88
2022-08-28T05:10:52.979Z,100557.31
2022-08-28T05:13:21.188Z,100554.69
2022-08-28T05:15:52.593Z,100554.31
2022-08-28T05:18:23.858Z,100560.28
2022-08-28T05:20:52.083Z,100566.59
2022-08-28T05:23:22.091Z,100565.47
2022-08-28T05:25:54.136Z,100562.09
2022-08-28T05:28:24.478Z,100563.72
2022-08-28T05:30:54.313Z,100560.78
2022-08-28T05:33:22.805Z,100560.94
2022-08-28T05:35:51.173Z,100569.41
2022-08-28T05:38:19.292Z,100573.50
2022-08-28T05:40:49.479Z,100571.34
2022-08-28T05:43:18.725Z,100564.16
2022-08-28T05:45:47.015Z,100564.72
2022-08-28T05:48:16.991Z,100563.47
2022-08-28T05:50:47.411Z,100568.87
2022-08-28T05:53:18.102Z,100577.25
2022-08-28T05:55:51.839Z,100578.00
2022-08-28T05:58:34.655Z,100579.25
2022-08-28T06:01:07.686Z,100589.31
2022-08-28T06:03:38.223Z,100588.19
2022-08-28T06:06:07.382Z,100582.72
2022-08-28T06:08:36.202Z,100586.50
2022-08-28T06:11:05.270Z,100586.34
2022-08-28T06:13:36.417Z,100591.88
2022-08-28T06:16:06.230Z,100592.72
2022-08-28T06:18:37.527Z,100593.03
2022-08-28T06:21:06.063Z,100596.31
2022-08-28T06:23:34.067Z,100600.69
2022-08-28T06:26:03.144Z,100597.16
2022-08-28T06:28:31.314Z,100604.00
2022-08-28T06:31:23.998Z,100602.81
2022-08-28T06:33:51.544Z,100595.41
2022-08-28T06:36:19.471Z,100595.88
2022-08-28T06:38:47.486Z,100603.19
2022-08-28T06:41:16.466Z,100598.56
2022-08-28T06:43:44.470Z,100604.16
2022-08-28T06:46:12.444Z,100610.37
2022-08-28T06:48:40.721Z,100607.72
2022-08-28T06:51:12.393Z,100607.22
2022-08-28T06:53:42.227Z,100616.03
2022-08-28T06:56:13.654Z,100618.41
2022-08-28T06:58:53.713Z,100620.16
2022-08-28T07:01:25.422Z,100620.94
2022-08-28T07:03:55.699Z,100621.84
2022-08-28T07:06:25.274Z,100625.78
2022-08-28T07:08:53.391Z,100626.47
2022-08-28T07:11:25.986Z,100625.56
2022-08-28T07:13:54.739Z,100621.50
2022-08-28T07:16:25.840Z,100623.91
2022-08-28T07:18:53.980Z,100621.28
2022-08-28T07:21:22.267Z,100619.69
2022-08-28T07:23:51.755Z,100627.53
2022-08-28T07:26:23.455Z,100616.13
2022-08-28T07:28:57.818Z,100612.81
2022-08-28T07:31:40.920Z,100620.69
2022-08-28T07:34:10.504Z,100620.37
2022-08-28T07:36:39.374Z,100613.66
2022-08-28T07:39:10.732Z,100610.06
2022-08-28T07:41:42.625Z,100617.34
2022-08-28T07:44:30.686Z,100627.56
2022-08-28T07:47:02.271Z,100621.69
2022-08-28T07:49:30.434Z,100623.28
2022-08-28T07:51:58.613Z,100625.97
2022-08-28T07:54:28.078Z,100629.41
2022-08-28T07:56:56.306Z,100621.59
2022-08-28T07:59:24.594Z,100634.16
2022-08-28T08:01:52.854Z,100626.06
2022-08-28T08:04:22.757Z,100622.88
2022-08-28T08:06:57.539Z,100628.13
2022-08-28T08:09:28.649Z,100628.78
2022-08-28T08:11:57.453Z,100630.47
2022-08-28T08:14:25.668Z,100633.50
2022-08-28T08:16:54.122Z,100633.81
2022-08-28T08:19:22.180Z,100629.09
2022-08-28T08:21:53.203Z,100639.44
2022-08-28T08:24:26.270Z,100636.69
2022-08-28T08:26:59.615Z,100631.09
2022-08-28T08:29:31.318Z,100637.81
2022-08-28T08:32:06.415Z,100632.75
2022-08-28T08:34:38.502Z,100633.09
2022-08-28T08:37:06.579Z,100638.13
2022-08-28T08:39:35.848Z,100644.53
2022-08-28T08:42:08.883Z,100640.31
2022-08-28T08:44:42.071Z,100639.09
2022-08-28T08:47:15.232Z,100642.12
2022-08-28T08:49:50.685Z,100641.56
2022-08-28T08:52:51.759Z,100640.31
2022-08-28T08:55:26.203Z,100638.25
2022-08-28T08:58:02.112Z,100634.53
2022-08-28T09:00:33.078Z,100638.19
2022-08-28T09:03:08.931Z,100647.97
2022-08-28T09:05:47.312Z,100639.34
2022-08-28T09:08:26.234Z,100639.44
2022-08-28T09:11:04.786Z,100641.31
2022-08-28T09:13:44.715Z,100649.19
2022-08-28T09:16:24.413Z,100645.25
2022-08-28T09:18:55.214Z,100641.63
2022-08-28T09:21:32.539Z,100651.06
2022-08-28T09:24:05.615Z,100636.69
2022-08-28T09:26:34.488Z,100649.12
2022-08-28T09:29:07.679Z,100643.25
2022-08-28T09:31:38.829Z,100641.41
2022-08-28T09:34:24.585Z,100646.06
2022-08-28T09:36:53.603Z,100645.62
2022-08-28T09:39:24.649Z,100646.06
2022-08-28T09:42:15.616Z,100656.72
2022-08-28T09:44:58.040Z,100644.28
2022-08-28T09:47:36.436Z,100646.16
2022-08-28T09:50:34.691Z,100649.88
2022-08-28T09:53:20.517Z,100651.31
2022-08-28T09:55:56.873Z,100650.59
2022-08-28T09:58:33.735Z,100646.03
2022-08-28T10:01:11.168Z,100644.78
2022-08-28T10:03:47.784Z,100647.63
2022-08-28T10:06:22.239Z,100650.47
2022-08-28T10:08:59.935Z,100649.12
2022-08-28T10:11:38.415Z,100648.09
2022-08-28T10:14:21.156Z,100647.72
2022-08-28T10:16:59.816Z,100649.56
2022-08-28T10:19:39.188Z,100653.19
2022-08-28T10:22:20.468Z,100655.62
2022-08-28T10:25:02.726Z,100653.22
2022-08-28T10:27:44.954Z,100655.75
2022-08-28T10:30:17.371Z,100638.44
2022-08-28T10:33:09.974Z,100652.38
2022-08-28T10:35:47.090Z,100651.69
2022-08-28T10:38:17.903Z,100643.22
2022-08-28T10:40:55.500Z,100643.81
2022-08-28T10:43:32.399Z,100649.91
2022-08-28T10:46:04.334Z,100636.59
2022-08-28T10:48:41.236Z,100639.94
2022-08-28T10:51:17.176Z,100647.66
2022-08-28T10:53:49.937Z,100649.56
2022-08-28T10:56:21.636Z,100650.22
2022-08-28T10:58:52.558Z,100644.03
2022-08-28T11:01:28.314Z,100650.69
2022-08-28T11:04:00.895Z,100641.34
2022-08-28T11:06:34.691Z,100646.50
2022-08-28T11:09:21.895Z,100642.75
2022-08-28T11:11:52.154Z,100642.38
2022-08-28T11:14:27.490Z,100648.06
2022-08-28T11:16:59.363Z,100648.56
2022-08-28T11:19:53.404Z,100645.25
2022-08-28T11:22:25.567Z,100641.06
2022-08-28T11:25:04.336Z,100646.97
2022-08-28T11:27:38.423Z,100649.69
2022-08-28T11:30:31.279Z,100645.09
2022-08-28T11:33:08.859Z,100647.19
2022-08-28T11:35:49.344Z,100652.59
2022-08-28T11:38:55.355Z,100646.16
2022-08-28T11:41:27.225Z,100642.00
2022-08-28T11:44:28.349Z,100648.22
2022-08-28T11:47:16.575Z,100645.25
2022-08-28T11:49:46.773Z,100649.50
2022-08-28T11:52:41.492Z,100645.41
2022-08-28T11:55:21.867Z,100642.59
2022-08-28T12:00:48.690Z,100641.44
2022-08-28T12:03:25.134Z,100635.03
2022-08-28T12:05:57.051Z,100639.66
2022-08-28T12:09:15.534Z,100632.16
2022-08-28T12:11:53.428Z,100632.28
2022-08-28T12:15:07.396Z,100629.47
2022-08-28T12:17:52.859Z,100627.06
2022-08-28T12:20:36.098Z,100625.81
2022-08-28T12:23:46.212Z,100631.94
2022-08-28T12:26:25.128Z,100628.16
2022-08-28T12:28:56.806Z,100619.72
2022-08-28T12:32:16.069Z,100618.09
2022-08-28T12:34:50.820Z,100613.28
2022-08-28T12:37:51.228Z,100612.28
2022-08-28T12:40:24.930Z,100618.16
2022-08-28T12:42:56.644Z,100614.16
2022-08-28T12:45:29.238Z,100620.69
2022-08-28T12:48:01.004Z,100614.16
2022-08-28T12:50:33.270Z,100625.09
2022-08-28T12:53:04.415Z,100620.13
2022-08-28T12:55:38.040Z,100618.66
2022-08-28T12:58:13.733Z,100627.06
2022-08-28T13:00:54.384Z,100621.38
2022-08-28T13:03:22.858Z,100626.84
2022-08-28T13:05:58.657Z,100619.28
2022-08-28T13:08:26.974Z,100620.56
2022-08-28T13:10:56.825Z,100614.25
2022-08-28T13:13:31.637Z,100620.97
2022-08-28T13:16:03.327Z,100606.87
2022-08-28T13:18:37.515Z,100611.31
2022-08-28T13:21:14.074Z,100603.31
2022-08-28T13:23:42.335Z,100602.28
2022-08-28T13:26:13.438Z,100606.28
2022-08-28T13:28:44.036Z,100605.66
2022-08-28T13:31:25.510Z,100609.84
2022-08-28T13:34:13.043Z,100609.63
2022-08-28T13:36:45.391Z,100599.75
2022-08-28T13:39:15.707Z,100603.94
2022-08-28T13:41:49.016Z,100604.59
2022-08-28T13:44:45.958Z,100598.28
2022-08-28T13:47:14.665Z,100593.44
2022-08-28T13:49:42.743Z,100595.34
2022-08-28T13:52:11.670Z,100588.41
2022-08-28T13:54:43.022Z,100593.66
2022-08-28T13:57:15.446Z,100590.91
2022-08-28T13:59:44.023Z,100588.59
2022-08-28T14:02:32.133Z,100583.69
2022-08-28T14:05:00.575Z,100591.31
2022-08-28T14:07:29.410Z,100589.59
2022-08-28T14:09:57.512Z,100594.50
2022-08-28T14:12:32.695Z,100600.59
2022-08-28T14:15:02.181Z,100600.09
2022-08-28T14:17:30.580Z,100584.12
2022-08-28T14:19:59.779Z,100601.09
2022-08-28T14:22:27.749Z,100597.84
2022-08-28T14:24:55.906Z,100587.97
2022-08-28T14:27:23.811Z,100600.22
2022-08-28T14:29:54.111Z,100599.19
2022-08-28T14:32:22.986Z,100592.00
2022-08-28T14:34:52.103Z,100595.88
2022-08-28T14:37:21.879Z,100589.09
2022-08-28T14:39:50.809Z,100591.78
2022-08-28T14:42:19.388Z,100584.06
2022-08-28T14:44:47.666Z,100584.91
2022-08-28T14:47:20.470Z,100591.50
2022-08-28T14:49:48.548Z,100580.34
2022-08-28T14:52:16.952Z,100584.56
2022-08-28T14:54:44.905Z,100587.34
2022-08-28T14:57:13.586Z,100587.19
2022-08-28T14:59:42.084Z,100586.13
2022-08-28T15:02:10.668Z,100577.94
2022-08-28T15:04:40.106Z,100590.16
2022-08-28T15:07:11.073Z,100587.19
2022-08-28T15:09:41.912Z,100587.59
2022-08-28T15:12:11.479Z,100593.34
2022-08-28T15:14:39.639Z,100589.13
2022-08-28T15:17:08.586Z,100584.31
2022-08-28T15:19:36.818Z,100593.59
2022-08-28T15:22:06.125Z,100586.22
2022-08-28T15:24:34.513Z,100592.28
2022-08-28T15:27:03.240Z,100585.91
2022-08-28T15:29:31.596Z,100588.31
2022-08-28T15:32:00.668Z,100583.41
2022-08-28T15:34:29.342Z,100576.59
2022-08-28T15:36:58.750Z,100586.50
2022-08-28T15:39:47.530Z,100574.47
2022-08-28T15:42:16.270Z,100577.84
2022-08-28T15:44:44.353Z,100578.47
2022-08-28T15:47:13.784Z,100576.37
2022-08-28T15:49:46.787Z,100583.47
2022-08-28T15:52:19.210Z,100579.00
2022-08-28T15:54:49.541Z,100582.75
2022-08-28T15:57:17.506Z,100576.72
2022-08-28T15:59:49.532Z,100580.56
2022-08-28T16:02:19.944Z,100584.50
2022-08-28T16:04:48.578Z,100578.00
2022-08-28T16:07:16.718Z,100575.78
2022-08-28T16:09:44.708Z,100582.94
2022-08-28T16:12:14.741Z,100575.41
2022-08-28T16:14:42.886Z,100574.34
2022-08-28T16:17:11.649Z,100581.66
2022-08-28T16:19:40.042Z,100579.44
2022-08-28T16:22:08.388Z,100579.78
2022-08-28T16:24:36.862Z,100576.53
2022-08-28T16:27:06.220Z,100582.38
2022-08-28T16:29:37.852Z,100579.97
2022-08-28T16:32:06.560Z,100578.28
2022-08-28T16:34:35.422Z,100581.97
2022-08-28T16:37:05.677Z,100578.12
2022-08-28T16:39:36.347Z,100578.56
2022-08-28T16:42:04.690Z,100579.28
2022-08-28T16:44:33.035Z,100579.16
2022-08-28T16:47:02.365Z,100577.13
2022-08-28T16:49:30.590Z,100579.22
2022-08-28T16:51:58.727Z,100576.97
2022-08-28T16:54:26.840Z,100589.50
2022-08-28T16:56:54.910Z,100576.44
2022-08-28T16:59:23.417Z,100578.12
2022-08-28T17:01:53.778Z,100578.91
2022-08-28T17:04:24.021Z,100579.25
2022-08-28T17:06:52.024Z,100578.12
2022-08-28T17:09:20.947Z,100577.66
2022-08-28T17:11:51.536Z,100581.22
2022-08-28T17:14:20.849Z,100575.50
2022-08-28T17:16:49.496Z,100578.81
2022-08-28T17:19:18.605Z,100574.78
2022-08-28T17:22:05.451Z,100577.59
2022-08-28T17:24:33.835Z,100588.84
2022-08-28T17:27:05.422Z,100587.94
2022-08-28T17:29:34.671Z,100591.84
2022-08-28T17:32:02.736Z,100592.03
2022-08-28T17:34:30.876Z,100592.78
2022-08-28T17:37:00.324Z,100592.63
2022-08-28T17:39:28.224Z,100599.66
2022-08-28T17:41:56.610Z,100598.56
2022-08-28T17:44:24.821Z,100604.75
2022-08-28T17:46:52.904Z,100602.78
2022-08-28T17:49:23.481Z,100604.59
2022-08-28T17:51:52.084Z,100609.28
2022-08-28T17:54:24.224Z,100607.56
2022-08-28T17:56:54.378Z,100611.88
2022-08-28T17:59:23.088Z,100612.34
2022-08-28T18:01:51.187Z,100623.13
2022-08-28T18:04:24.210Z,100615.09
2022-08-28T18:06:54.138Z,100620.66
2022-08-28T18:09:24.973Z,100624.50
2022-08-28T18:11:53.188Z,100626.84
2022-08-28T18:14:21.431Z,100626.28
2022-08-28T18:16:50.066Z,100633.63
2022-08-28T18:19:18.251Z,100637.84
2022-08-28T18:21:47.119Z,100635.41
2022-08-28T18:24:15.264Z,100640.41
2022-08-28T18:26:45.402Z,100644.59
2022-08-28T18:29:13.350Z,100648.13
2022-08-28T18:31:43.132Z,100645.78
2022-08-28T18:34:11.777Z,100647.91
2022-08-28T18:36:41.592Z,100649.16
2022-08-28T18:39:10.400Z,100656.00
2022-08-28T18:41:43.636Z,100654.91
2022-08-28T18:44:15.369Z,100659.00
2022-08-28T18:46:44.723Z,100665.84
2022-08-28T18:49:13.553Z,100672.66
2022-08-28T18:51:43.490Z,100669.28
2022-08-28T18:54:12.260Z,100670.03
2022-08-28T18:56:40.906Z,100670.41
2022-08-28T18:59:09.614Z,100676.81
2022-08-28T19:01:39.142Z,100679.53
2022-08-28T19:04:07.754Z,100679.53
2022-08-28T19:06:36.285Z,100673.94
2022-08-28T19:09:05.658Z,100683.59
2022-08-28T19:11:35.776Z,100681.91
2022-08-28T19:14:04.327Z,100684.44
2022-08-28T19:16:32.572Z,100680.72
2022-08-28T19:19:02.625Z,100689.03
2022-08-28T19:21:30.711Z,100690.72
2022-08-28T19:23:58.699Z,100693.41
2022-08-28T19:26:28.643Z,100695.28
2022-08-28T19:28:56.865Z,100693.91
2022-08-28T19:31:26.111Z,100695.44
2022-08-28T19:33:54.884Z,100701.03
2022-08-28T19:36:27.024Z,100704.91
2022-08-28T19:38:55.224Z,100713.72
2022-08-28T19:41:23.734Z,100716.44
2022-08-28T19:43:52.213Z,100715.22
2022-08-28T19:46:21.020Z,100730.47
2022-08-28T19:48:49.596Z,100731.97
2022-08-28T19:51:22.628Z,100731.78
2022-08-28T19:53:58.452Z,100733.25
2022-08-28T19:56:28.082Z,100727.16
2022-08-28T19:58:58.880Z,100725.78
2022-08-28T20:01:29.428Z,100737.59
2022-08-28T20:03:58.651Z,100737.78
2022-08-28T20:06:27.418Z,100741.50
2022-08-28T20:08:56.720Z,100739.81
2022-08-28T20:11:30.536Z,100745.22
2022-08-28T20:14:03.832Z,100744.88
2022-08-28T20:16:34.762Z,100751.81
2022-08-28T20:19:03.901Z,100743.00
2022-08-28T20:21:37.213Z,100746.88
2022-08-28T20:24:08.946Z,100754.97
2022-08-28T20:26:37.940Z,100759.53
2022-08-28T20:29:07.529Z,100754.47
2022-08-28T20:31:36.331Z,100754.94
2022-08-28T20:34:04.905Z,100750.03
2022-08-28T20:36:32.915Z,100758.31
2022-08-28T20:39:03.494Z,100757.09
2022-08-28T20:41:33.032Z,100758.09
2022-08-28T20:44:02.058Z,100770.09
2022-08-28T20:46:31.989Z,100772.59
2022-08-28T20:49:00.451Z,100767.19
2022-08-28T20:51:42.435Z,100763.47
2022-08-28T20:54:12.485Z,100772.75
2022-08-28T20:56:42.265Z,100774.28
2022-08-28T20:59:10.647Z,100772.31
2022-08-28T21:01:38.635Z,100774.06
2022-08-28T21:04:06.891Z,100773.97
2022-08-28T21:06:35.278Z,100777.84
2022-08-28T21:09:03.396Z,100774.41
2022-08-28T21:11:31.438Z,100782.66
2022-08-28T21:14:00.982Z,100789.22
2022-08-28T21:16:29.473Z,100790.03
2022-08-28T21:19:15.144Z,100787.47
2022-08-28T21:21:45.307Z,100789.97
2022-08-28T21:24:16.560Z,100790.22
2022-08-28T21:26:47.771Z,100796.06
2022-08-28T21:29:19.978Z,100805.50
2022-08-28T21:31:50.435Z,100802.87
2022-08-28T21:34:20.763Z,100808.84
2022-08-28T21:36:50.731Z,100810.31
2022-08-28T21:39:20.826Z,100807.91
2022-08-28T21:41:49.827Z,100814.78
2022-08-28T21:44:19.322Z,100814.69
2022-08-28T21:46:47.291Z,100820.69
2022-08-28T21:49:15.459Z,100816.06
2022-08-28T21:51:43.444Z,100820.53
2022-08-28T21:54:11.494Z,100825.66
2022-08-28T21:56:39.728Z,100825.56
2022-08-28T21:59:07.982Z,100828.72
2022-08-28T22:01:37.292Z,100828.88
2022-08-28T22:04:08.456Z,100832.47
2022-08-28T22:06:39.913Z,100832.47
2022-08-28T22:09:09.802Z,100831.72
2022-08-28T22:11:37.801Z,100834.84
2022-08-28T22:14:05.766Z,100837.56
2022-08-28T22:16:34.020Z,100845.09
2022-08-28T22:19:04.357Z,100832.63
2022-08-28T22:21:50.075Z,100841.13
2022-08-28T22:24:19.044Z,100840.59
2022-08-28T22:26:47.394Z,100839.75
2022-08-28T22:31:46.051Z,100836.09
2022-08-28T22:34:15.654Z,100845.72
2022-08-28T22:36:43.823Z,100844.03
2022-08-28T22:39:11.723Z,100848.59
2022-08-28T22:41:40.340Z,100844.19
2022-08-28T22:44:08.909Z,100846.50
2022-08-28T22:46:36.965Z,100848.59
2022-08-28T22:49:05.207Z,100840.13
2022-08-28T22:51:36.089Z,100843.81
2022-08-28T22:54:04.254Z,100839.53
2022-08-28T22:56:32.271Z,100848.06
2022-08-28T22:59:00.891Z,100843.53
2022-08-28T23:01:29.514Z,100842.97
2022-08-28T23:03:57.721Z,100842.25
2022-08-28T23:06:25.984Z,100847.94
2022-08-28T23:08:55.386Z,100844.69
2022-08-28T23:11:23.574Z,100854.19
2022-08-28T23:13:52.034Z,100850.09
2022-08-28T23:16:23.991Z,100861.94
2022-08-28T23:19:08.754Z,100849.47
2022-08-28T23:21:40.822Z,100854.84
2022-08-28T23:24:13.513Z,100853.16
2022-08-28T23:26:41.844Z,100857.41
2022-08-28T23:29:10.327Z,100849.19
2022-08-28T23:31:39.257Z,100858.78
2022-08-28T23:34:07.977Z,100856.69
2022-08-28T23:36:37.190Z,100855.81
2022-08-28T23:39:08.023Z,100851.97
2022-08-28T23:41:37.313Z,100864.06
2022-08-28T23:44:08.704Z,100864.63
2022-08-28T23:46:41.369Z,100860.66
2022-08-28T23:49:09.930Z,100863.47
2022-08-28T23:51:38.316Z,100863.75
2022-08-28T23:54:07.469Z,100860.31
2022-08-28T23:56:37.146Z,100861.75
2022-08-28T23:59:05.825Z,100855.22
